Time;durP1;ratioP1;P1;durP2;ratioP2;P2;SDS_P1;SDS_P2;PMS_P1;PMS_P2;Temp;Humidity;BMP_temperature;BMP_pressure;BME280_temperature;BME280_humidity;BME280_pressure;Samples;Min_cycle;Max_cycle;Signal;HPM_P1;HPM_P2
2022/10/02 00:01:54;;;;;;;8.02;2.00;;;11.70;99.90;;;;;;4963825;28;20506;-65
2022/10/02 00:04:35;;;;;;;8.07;1.90;;;11.70;99.90;;;;;;4976622;28;20505;-66
2022/10/02 00:07:06;;;;;;;7.32;1.90;;;11.60;99.90;;;;;;4976509;28;20352;-65
2022/10/02 00:09:39;;;;;;;16.27;2.63;;;11.80;99.90;;;;;;4976353;28;20054;-66
2022/10/02 00:12:08;;;;;;;;;;;11.70;99.90;;;;;;4977428;28;20047;-66
2022/10/02 00:14:38;;;;;;;9.15;1.40;;;11.70;99.90;;;;;;4975986;28;20033;-66
2022/10/02 00:17:05;;;;;;;4.75;1.02;;;11.60;99.90;;;;;;4977656;28;20043;-66
2022/10/02 00:19:31;;;;;;;4.55;1.10;;;11.50;99.90;;;;;;4977470;28;20093;-65
2022/10/02 00:22:08;;;;;;;4.05;0.80;;;11.80;99.90;;;;;;4977414;28;20047;-65
2022/10/02 00:25:07;;;;;;;4.93;0.73;;;11.50;99.90;;;;;;4976850;28;20431;-65
2022/10/02 00:27:56;;;;;;;8.13;0.93;;;11.40;99.90;;;;;;4977155;28;20133;-65
2022/10/02 00:30:22;;;;;;;9.57;1.20;;;11.40;99.90;;;;;;4977321;28;20046;-65
2022/10/02 00:33:10;;;;;;;6.65;1.10;;;11.50;99.90;;;;;;4976981;28;20472;-65
2022/10/02 00:36:11;;;;;;;6.50;1.52;;;11.30;99.90;;;;;;4976246;28;20130;-65
2022/10/02 00:38:50;;;;;;;8.65;1.83;;;11.30;99.90;;;;;;4975992;28;20061;-65
2022/10/02 00:41:26;;;;;;;6.28;1.88;;;11.40;99.90;;;;;;4976332;28;20086;-65
2022/10/02 00:44:17;;;;;;;8.20;2.20;;;11.30;99.90;;;;;;4976274;28;20570;-66
2022/10/02 00:46:57;;;;;;;14.90;3.15;;;11.50;99.90;;;;;;4977047;28;20050;-65
2022/10/02 00:49:43;;;;;;;6.13;3.10;;;11.40;99.90;;;;;;4976766;28;20423;-65
2022/10/02 00:52:18;;;;;;;9.45;3.50;;;11.40;99.90;;;;;;4977389;28;20058;-65
2022/10/02 00:55:21;;;;;;;10.30;3.30;;;11.40;99.90;;;;;;4977012;28;20058;-65
2022/10/02 00:57:59;;;;;;;10.77;4.00;;;11.40;99.90;;;;;;4975672;28;20053;-65
2022/10/02 01:00:25;;;;;;;9.55;3.55;;;11.50;99.90;;;;;;4977056;28;20589;-65
2022/10/02 01:03:09;;;;;;;8.25;3.45;;;11.50;99.90;;;;;;4976486;28;20149;-65
2022/10/02 01:05:36;;;;;;;10.32;2.97;;;11.40;99.90;;;;;;4975728;28;20066;-65
2022/10/02 01:08:03;;;;;;;12.93;3.20;;;11.50;99.90;;;;;;4976347;28;20042;-65
2022/10/02 01:10:29;;;;;;;11.88;3.90;;;11.50;99.90;;;;;;4975523;28;20184;-65
2022/10/02 01:12:56;;;;;;;16.08;4.20;;;11.70;99.90;;;;;;4976570;28;20073;-65
2022/10/02 01:15:36;;;;;;;13.15;4.95;;;11.60;99.90;;;;;;4974921;28;20376;-65
2022/10/02 01:18:02;;;;;;;17.70;7.30;;;10.90;99.90;;;;;;4976521;28;20046;-65
2022/10/02 01:20:40;;;;;;;23.60;9.85;;;11.60;99.90;;;;;;4976334;28;20065;-65
2022/10/02 01:23:32;;;;;;;24.38;10.65;;;11.40;99.90;;;;;;4976725;28;20097;-65
2022/10/02 01:25:58;;;;;;;23.20;11.23;;;11.40;99.90;;;;;;4975839;28;20510;-65
2022/10/02 01:28:24;;;;;;;22.85;10.00;;;11.60;99.90;;;;;;4976255;28;20131;-65
2022/10/02 01:30:54;;;;;;;19.80;8.55;;;11.30;99.90;;;;;;4976125;28;20050;-65
2022/10/02 01:33:21;;;;;;;16.17;7.60;;;11.30;99.90;;;;;;4976103;28;20050;-65
2022/10/02 01:35:48;;;;;;;15.60;4.22;;;11.30;99.90;;;;;;4976201;28;20054;-65
2022/10/02 01:38:18;;;;;;;19.90;6.60;;;11.30;99.90;;;;;;4976219;28;20057;-65
2022/10/02 01:40:44;;;;;;;12.55;3.83;;;11.50;99.90;;;;;;4975983;28;20054;-65
2022/10/02 01:43:11;;;;;;;16.65;5.35;;;11.50;99.90;;;;;;4975956;28;20399;-65
2022/10/02 01:45:51;;;;;;;13.02;4.22;;;11.30;99.90;;;;;;4975067;28;20117;-65
2022/10/02 01:48:32;;;;;;;12.05;2.80;;;11.20;99.90;;;;;;4976127;28;20125;-66
2022/10/02 01:51:51;;;;;;;13.80;3.50;;;11.20;99.90;;;;;;4975761;28;20129;-65
2022/10/02 01:54:31;;;;;;;8.65;3.85;;;11.20;99.90;;;;;;4897190;29;20131;-65
2022/10/02 01:57:12;;;;;;;9.43;2.65;;;11.20;99.90;;;;;;4974958;28;20054;-65
2022/10/02 01:59:52;;;;;;;13.40;2.70;;;11.10;99.90;;;;;;4975694;28;20043;-65
2022/10/02 02:02:26;;;;;;;7.10;1.90;;;11.20;99.90;;;;;;4975510;28;20050;-65
2022/10/02 02:04:55;;;;;;;12.73;2.53;;;11.10;99.90;;;;;;4974774;28;20046;-66
2022/10/02 02:07:27;;;;;;;13.55;3.38;;;11.10;99.90;;;;;;4975461;28;20105;-65
2022/10/02 02:10:03;;;;;;;5.55;1.70;;;11.20;99.90;;;;;;4974403;28;20055;-65
2022/10/02 02:12:42;;;;;;;12.23;2.80;;;11.30;99.90;;;;;;4975235;28;20042;-65
2022/10/02 02:15:39;;;;;;;9.23;2.45;;;11.30;99.90;;;;;;4974968;28;20081;-65
2022/10/02 02:18:23;;;;;;;8.90;1.58;;;11.10;99.90;;;;;;4974424;28;20069;-65
2022/10/02 02:20:50;;;;;;;;;;;11.10;99.90;;;;;;4958963;28;20094;-65
2022/10/02 02:23:21;;;;;;;6.93;1.73;;;11.30;99.90;;;;;;4974911;28;19922;-65
2022/10/02 02:25:50;;;;;;;9.35;1.85;;;11.10;99.90;;;;;;4975738;28;20089;-65
2022/10/02 02:28:19;;;;;;;10.85;2.03;;;11.10;99.90;;;;;;4975071;28;20047;-65
2022/10/02 02:30:49;;;;;;;7.30;1.70;;;11.10;99.90;;;;;;4975274;28;20491;-64
2022/10/02 02:33:21;;;;;;;10.70;2.30;;;11.20;99.90;;;;;;4975188;28;20094;-65
2022/10/02 02:35:54;;;;;;;6.90;1.45;;;11.30;99.90;;;;;;4975074;28;20057;-65
2022/10/02 02:38:30;;;;;;;7.97;1.97;;;10.90;99.90;;;;;;4974862;28;20171;-65
2022/10/02 02:41:02;;;;;;;10.43;1.90;;;11.40;99.90;;;;;;4975170;28;20078;-65
2022/10/02 02:43:39;;;;;;;10.40;1.90;;;11.10;99.90;;;;;;4974105;28;20054;-65
2022/10/02 02:46:13;;;;;;;8.23;1.73;;;11.30;99.90;;;;;;4973654;28;20133;-65
2022/10/02 02:48:44;;;;;;;8.25;1.52;;;11.10;99.90;;;;;;4958497;28;20515;-65
2022/10/02 02:51:15;;;;;;;9.05;1.95;;;11.30;99.90;;;;;;4974763;28;20086;-65
2022/10/02 02:54:05;;;;;;;11.35;1.88;;;11.10;99.90;;;;;;4957739;28;20058;-65
2022/10/02 02:56:32;;;;;;;9.10;1.27;;;11.00;99.90;;;;;;4973631;28;20042;-65
2022/10/02 02:59:09;;;;;;;7.13;1.70;;;11.00;99.90;;;;;;4972923;28;20051;-65
2022/10/02 03:01:35;;;;;;;4.65;1.17;;;11.10;99.90;;;;;;4974966;28;20465;-65
2022/10/02 03:04:01;;;;;;;6.47;1.20;;;11.30;99.90;;;;;;4974472;28;20047;-65
2022/10/02 03:06:35;;;;;;;10.70;1.48;;;11.30;99.90;;;;;;4974875;28;20053;-65
2022/10/02 03:09:02;;;;;;;8.32;1.30;;;11.00;99.90;;;;;;4974323;28;20126;-65
2022/10/02 03:11:40;;;;;;;5.00;1.30;;;11.30;99.90;;;;;;4974620;28;20055;-65
2022/10/02 03:14:12;;;;;;;6.20;1.23;;;11.10;99.90;;;;;;4974171;28;20050;-65
2022/10/02 03:16:51;;;;;;;5.90;1.27;;;11.10;99.90;;;;;;4974440;28;20043;-65
2022/10/02 03:19:45;;;;;;;9.15;1.42;;;11.10;99.90;;;;;;4974392;28;20515;-65
2022/10/02 03:22:44;;;;;;;7.25;1.65;;;11.20;99.90;;;;;;4974415;28;20495;-65
2022/10/02 03:25:30;;;;;;;7.20;1.23;;;11.30;99.90;;;;;;4948498;28;20055;-65
2022/10/02 03:28:10;;;;;;;5.72;1.38;;;11.20;99.90;;;;;;4974183;28;20051;-65
2022/10/02 03:30:37;;;;;;;7.22;1.10;;;11.20;99.90;;;;;;4974386;28;20047;-65
2022/10/02 03:33:04;;;;;;;6.18;1.42;;;11.10;99.90;;;;;;4974243;28;20054;-65
2022/10/02 03:35:31;;;;;;;6.03;1.35;;;11.20;99.90;;;;;;4974239;28;20058;-65
2022/10/02 03:38:02;;;;;;;5.95;1.42;;;11.20;99.90;;;;;;4974258;28;20422;-65
2022/10/02 03:40:27;;;;;;;7.38;1.30;;;11.40;99.90;;;;;;4974157;28;20063;-65
2022/10/02 03:42:57;;;;;;;7.95;1.58;;;11.40;99.90;;;;;;4973315;28;20143;-65
2022/10/02 03:45:23;;;;;;;5.50;1.05;;;11.30;99.90;;;;;;4973766;28;20054;-65
2022/10/02 03:47:49;;;;;;;12.15;1.42;;;11.20;99.90;;;;;;4973935;28;20130;-65
2022/10/02 03:50:15;;;;;;;5.20;0.90;;;11.20;99.90;;;;;;4974158;28;20119;-65
2022/10/02 03:52:41;;;;;;;10.00;1.95;;;11.20;99.90;;;;;;4973746;28;20047;-65
2022/10/02 03:55:13;;;;;;;6.25;0.98;;;11.10;99.90;;;;;;4974240;28;20042;-65
2022/10/02 03:57:39;;;;;;;7.43;1.45;;;11.10;99.90;;;;;;4974219;28;20047;-65
2022/10/02 04:00:18;;;;;;;5.63;1.42;;;11.10;99.90;;;;;;4974005;28;20047;-65
2022/10/02 04:03:06;;;;;;;7.93;1.15;;;11.00;99.90;;;;;;4974380;28;20402;-65
2022/10/02 04:05:43;;;;;;;7.57;1.42;;;11.10;99.90;;;;;;4972682;28;20051;-65
2022/10/02 04:08:26;;;;;;;9.57;1.25;;;11.00;99.90;;;;;;4973826;28;20497;-65
2022/10/02 04:11:15;;;;;;;;;;;11.10;99.90;;;;;;4976306;28;20078;-65
2022/10/02 04:13:49;;;;;;;7.05;1.40;;;11.00;99.90;;;;;;4976825;28;19957;-65
2022/10/02 04:16:34;;;;;;;7.68;1.45;;;11.00;99.90;;;;;;4976618;28;20046;-65
2022/10/02 04:19:35;;;;;;;7.65;1.70;;;11.10;99.90;;;;;;4977714;28;20042;-65
2022/10/02 04:22:15;;;;;;;7.32;1.38;;;11.00;99.90;;;;;;4977234;28;20051;-65
2022/10/02 04:25:04;;;;;;;10.50;1.27;;;11.00;99.90;;;;;;4977697;28;20043;-65
2022/10/02 04:27:38;;;;;;;7.88;1.58;;;11.20;99.90;;;;;;4977131;28;20045;-65
2022/10/02 04:30:13;;;;;;;9.63;1.60;;;11.20;99.90;;;;;;4976387;28;20134;-65
2022/10/02 04:32:39;;;;;;;8.18;1.40;;;11.00;99.90;;;;;;4977120;28;20089;-65
2022/10/02 04:35:18;;;;;;;8.85;1.38;;;11.00;99.90;;;;;;4977070;28;20479;-65
2022/10/02 04:38:24;;;;;;;6.72;1.35;;;11.00;99.90;;;;;;4977197;28;20055;-65
2022/10/02 04:41:19;;;;;;;8.80;1.15;;;11.00;99.90;;;;;;4976045;28;20043;-65
2022/10/02 04:44:03;;;;;;;6.75;1.20;;;11.10;99.90;;;;;;4976544;28;20102;-65
2022/10/02 04:46:47;;;;;;;8.93;1.50;;;11.10;99.90;;;;;;4977052;28;20435;-65
2022/10/02 04:49:31;;;;;;;9.18;1.40;;;11.00;99.90;;;;;;4975725;28;20054;-65
2022/10/02 04:52:04;;;;;;;6.05;1.23;;;11.00;99.90;;;;;;4977548;28;20131;-65
2022/10/02 04:54:47;;;;;;;10.45;1.90;;;11.20;99.90;;;;;;4996496;28;20058;-65
2022/10/02 04:57:40;;;;;;;8.50;1.38;;;10.90;99.90;;;;;;4996146;28;20042;-65
2022/10/02 05:00:16;;;;;;;7.23;1.10;;;11.00;99.90;;;;;;4996020;28;20509;-65
2022/10/02 05:02:51;;;;;;;5.55;1.00;;;11.00;99.90;;;;;;4996227;28;20772;-65
2022/10/02 05:05:48;;;;;;;6.95;1.20;;;11.10;99.90;;;;;;4994797;28;20050;-65
2022/10/02 05:08:32;;;;;;;9.07;1.20;;;11.10;99.90;;;;;;4996467;28;20069;-65
2022/10/02 05:11:13;;;;;;;7.00;1.10;;;11.30;99.90;;;;;;4995816;28;20057;-65
2022/10/02 05:13:44;;;;;;;5.72;1.00;;;11.10;99.90;;;;;;4996099;28;20050;-65
2022/10/02 05:16:44;;;;;;;7.03;1.13;;;11.10;99.90;;;;;;4995825;28;20046;-65
2022/10/02 05:19:40;;;;;;;7.05;1.45;;;11.10;99.90;;;;;;4995946;28;20132;-65
2022/10/02 05:22:24;;;;;;;7.45;1.15;;;11.10;99.90;;;;;;4995289;28;20054;-65
2022/10/02 05:25:08;;;;;;;;;;;11.00;99.90;;;;;;4996522;28;20129;-65
2022/10/02 05:27:48;;;;;;;10.57;1.77;;;11.10;99.90;;;;;;4995552;28;19921;-65
2022/10/02 05:30:17;;;;;;;5.30;1.30;;;11.00;99.90;;;;;;4963635;28;20081;-65
2022/10/02 05:33:10;;;;;;;6.82;2.20;;;11.10;99.90;;;;;;4994342;28;20447;-65
2022/10/02 05:36:03;;;;;;;10.55;1.35;;;11.00;99.90;;;;;;4995620;28;20050;-65
2022/10/02 05:38:55;;;;;;;10.65;1.15;;;11.00;99.90;;;;;;4995631;28;20050;-65
2022/10/02 05:41:25;;;;;;;6.57;1.20;;;11.20;99.90;;;;;;4979488;28;20141;-65
2022/10/02 05:43:55;;;;;;;8.60;1.30;;;11.00;99.90;;;;;;4994192;28;20058;-65
2022/10/02 05:46:32;;;;;;;6.80;0.90;;;11.00;99.90;;;;;;4995377;28;20061;-65
2022/10/02 05:49:12;;;;;;;7.28;1.00;;;11.20;99.90;;;;;;4995404;28;20482;-65
2022/10/02 05:51:58;;;;;;;7.15;1.02;;;11.00;99.90;;;;;;4995277;28;20410;-65
2022/10/02 05:54:36;;;;;;;9.52;1.58;;;10.80;99.90;;;;;;4995366;28;20474;-65
2022/10/02 05:57:12;;;;;;;10.52;1.23;;;11.00;99.90;;;;;;4995186;28;20070;-65
2022/10/02 05:59:53;;;;;;;8.25;1.40;;;11.00;99.90;;;;;;4995421;28;20112;-65
2022/10/02 06:02:56;;;;;;;12.18;1.67;;;10.70;99.90;;;;;;4995035;28;20394;-65
2022/10/02 06:05:37;;;;;;;10.15;1.00;;;10.90;99.90;;;;;;4977869;28;20061;-65
2022/10/02 06:08:06;;;;;;;13.18;1.67;;;10.90;99.90;;;;;;4993863;28;20490;-65
2022/10/02 06:10:40;;;;;;;10.57;1.38;;;11.00;99.90;;;;;;4993529;28;20438;-65
2022/10/02 06:13:22;;;;;;;6.78;1.33;;;11.10;99.90;;;;;;4994077;28;20053;-65
2022/10/02 06:16:02;;;;;;;8.30;1.05;;;11.00;99.90;;;;;;4994385;28;20401;-65
2022/10/02 06:18:32;;;;;;;11.82;1.10;;;10.90;99.90;;;;;;4994727;28;20082;-65
2022/10/02 06:21:30;;;;;;;7.95;1.30;;;11.20;99.90;;;;;;4994736;28;20048;-65
2022/10/02 06:24:01;;;;;;;7.78;1.05;;;10.90;99.90;;;;;;4994327;28;20438;-65
2022/10/02 06:26:43;;;;;;;6.82;1.13;;;11.20;99.90;;;;;;4995007;28;20073;-65
2022/10/02 06:29:18;;;;;;;13.95;1.45;;;10.90;99.90;;;;;;4994582;28;20098;-65
2022/10/02 06:32:02;;;;;;;5.75;0.98;;;10.90;99.90;;;;;;4993539;28;20510;-65
2022/10/02 06:34:28;;;;;;;8.98;1.20;;;10.90;99.90;;;;;;4992946;28;20050;-65
2022/10/02 06:37:14;;;;;;;9.48;1.02;;;11.00;99.90;;;;;;4994247;28;20510;-65
2022/10/02 06:40:12;;;;;;;7.43;1.42;;;11.00;99.90;;;;;;4994299;28;20054;-65
2022/10/02 06:42:41;;;;;;;10.50;1.60;;;11.00;99.90;;;;;;4994306;28;20487;-65
2022/10/02 06:45:28;;;;;;;10.73;1.48;;;11.00;99.90;;;;;;4993848;28;20046;-65
2022/10/02 06:48:24;;;;;;;9.35;1.00;;;11.10;99.90;;;;;;4994194;28;20046;-65
2022/10/02 06:51:08;;;;;;;8.15;1.13;;;11.10;99.90;;;;;;4994195;28;20053;-65
2022/10/02 06:53:34;;;;;;;9.80;1.13;;;11.30;99.90;;;;;;4994038;28;20491;-65
2022/10/02 06:56:08;;;;;;;8.73;1.23;;;11.10;99.90;;;;;;4994220;28;20046;-65
2022/10/02 06:58:58;;;;;;;9.13;1.30;;;11.30;99.90;;;;;;4993902;28;20042;-65
2022/10/02 07:01:36;;;;;;;10.98;1.35;;;11.20;99.90;;;;;;4994697;28;20046;-65
2022/10/02 07:04:41;;;;;;;7.57;1.10;;;11.40;99.90;;;;;;4994160;28;20054;-65
2022/10/02 07:07:40;;;;;;;9.45;1.02;;;11.30;99.90;;;;;;4994229;28;20512;-65
2022/10/02 07:10:24;;;;;;;7.53;1.30;;;11.30;99.90;;;;;;4994031;28;20490;-65
2022/10/02 07:13:44;;;;;;;12.63;1.20;;;11.40;99.90;;;;;;4993905;28;20482;-65
2022/10/02 07:16:30;;;;;;;6.25;1.33;;;11.50;99.90;;;;;;4952540;29;20109;-65
2022/10/02 07:19:11;;;;;;;10.38;1.73;;;11.60;99.90;;;;;;4988937;28;20066;-65
2022/10/02 07:21:49;;;;;;;8.98;1.50;;;11.70;99.90;;;;;;4993683;28;20057;-65
2022/10/02 07:24:45;;;;;;;11.85;1.30;;;11.80;99.90;;;;;;4993897;28;20046;-65
2022/10/02 07:27:28;;;;;;;8.90;1.48;;;12.00;99.90;;;;;;4993743;28;20133;-65
2022/10/02 07:30:14;;;;;;;;;;;11.90;99.90;;;;;;4993027;28;20046;-65
2022/10/02 07:32:47;;;;;;;5.65;0.93;;;11.90;99.90;;;;;;4993848;28;19968;-66
2022/10/02 07:35:22;;;;;;;;;;;11.90;99.90;;;;;;4993172;28;20133;-65
2022/10/02 07:38:09;;;;;;;8.50;1.10;;;11.90;99.90;;;;;;4993554;28;19967;-65
2022/10/02 07:41:15;;;;;;;7.30;1.10;;;11.90;99.90;;;;;;4994257;28;20051;-65
2022/10/02 07:44:16;;;;;;;6.07;1.40;;;12.00;99.90;;;;;;4988436;28;20057;-65
2022/10/02 07:47:16;;;;;;;10.65;1.25;;;11.90;99.90;;;;;;4976106;28;20050;-65
2022/10/02 07:49:42;;;;;;;6.38;1.10;;;12.00;99.90;;;;;;4967318;28;20090;-66
2022/10/02 07:52:22;;;;;;;6.75;0.90;;;12.00;99.90;;;;;;4986262;28;20082;-65
2022/10/02 07:54:51;;;;;;;8.52;0.98;;;12.00;99.90;;;;;;4985092;28;20097;-65
2022/10/02 07:57:41;;;;;;;8.98;1.05;;;12.00;99.90;;;;;;4987783;28;20042;-65
2022/10/02 08:00:18;;;;;;;8.27;1.33;;;12.00;99.90;;;;;;4988405;28;20038;-65
2022/10/02 08:03:22;;;;;;;7.47;1.10;;;12.10;99.90;;;;;;4986695;28;20407;-65
2022/10/02 08:05:59;;;;;;;5.65;1.00;;;12.20;99.90;;;;;;4917843;29;20567;-65
2022/10/02 08:08:37;;;;;;;6.60;1.20;;;12.10;99.90;;;;;;4901863;29;20056;-65
2022/10/02 08:11:17;;;;;;;7.75;1.00;;;12.20;99.90;;;;;;4959973;28;20070;-65
2022/10/02 08:13:55;;;;;;;9.10;1.15;;;12.20;99.90;;;;;;4988151;28;20560;-65
2022/10/02 08:16:31;;;;;;;8.13;1.00;;;12.30;99.90;;;;;;4988024;28;20050;-65
2022/10/02 08:19:04;;;;;;;7.82;1.00;;;12.30;99.90;;;;;;4987995;28;20049;-65
2022/10/02 08:21:34;;;;;;;8.68;1.30;;;12.40;99.90;;;;;;4987475;28;20537;-65
2022/10/02 08:24:14;;;;;;;7.35;1.17;;;12.30;99.90;;;;;;4986196;28;20043;-66
2022/10/02 08:26:51;;;;;;;6.43;1.05;;;12.50;99.90;;;;;;4976850;28;20607;-65
2022/10/02 08:29:39;;;;;;;7.32;1.77;;;12.50;99.90;;;;;;4977581;28;20103;-65
2022/10/02 08:32:12;;;;;;;9.23;1.17;;;12.40;99.90;;;;;;4976471;28;20129;-65
2022/10/02 08:34:39;;;;;;;;;;;12.40;99.90;;;;;;4977035;28;20142;-65
2022/10/02 08:37:12;;;;;;;6.47;1.10;;;12.50;99.90;;;;;;4975895;28;20387;-65
2022/10/02 08:39:50;;;;;;;8.02;1.52;;;12.30;99.90;;;;;;4976253;28;20055;-65
2022/10/02 08:42:40;;;;;;;6.38;1.23;;;12.40;99.90;;;;;;4977496;28;20053;-65
2022/10/02 08:45:14;;;;;;;6.18;1.00;;;12.40;99.90;;;;;;4976622;28;20090;-65
2022/10/02 08:48:10;;;;;;;6.80;1.45;;;12.40;99.90;;;;;;4977269;28;20082;-64
2022/10/02 08:50:54;;;;;;;8.88;0.98;;;12.40;99.90;;;;;;4977096;28;20105;-65
2022/10/02 08:53:31;;;;;;;5.95;0.90;;;12.50;99.90;;;;;;4975989;28;20063;-65
2022/10/02 08:56:16;;;;;;;8.25;1.60;;;12.60;99.90;;;;;;4976316;28;20058;-65
2022/10/02 08:58:42;;;;;;;4.97;1.20;;;12.70;99.90;;;;;;4976968;28;20085;-66
2022/10/02 09:01:34;;;;;;;4.75;0.90;;;12.70;99.90;;;;;;4977139;28;20093;-65
2022/10/02 09:04:18;;;;;;;4.45;1.10;;;12.70;99.90;;;;;;4977113;28;20133;-65
2022/10/02 09:07:39;;;;;;;5.07;1.05;;;12.60;99.90;;;;;;4977002;28;20058;-65
2022/10/02 09:10:32;;;;;;;6.22;1.17;;;12.70;99.90;;;;;;4972796;28;20063;-66
2022/10/02 09:13:17;;;;;;;6.97;0.98;;;12.70;99.90;;;;;;4975954;28;20057;-65
2022/10/02 09:16:21;;;;;;;4.35;0.98;;;12.70;99.90;;;;;;4974748;28;20495;-65
2022/10/02 09:19:00;;;;;;;6.30;1.10;;;12.70;99.90;;;;;;4976261;28;20546;-65
2022/10/02 09:21:59;;;;;;;6.22;1.00;;;12.80;99.90;;;;;;4976615;28;20051;-65
2022/10/02 09:24:49;;;;;;;8.00;1.08;;;12.90;99.90;;;;;;4976116;28;20056;-65
2022/10/02 09:27:24;;;;;;;7.07;1.15;;;12.90;99.90;;;;;;4976188;28;20090;-66
2022/10/02 09:29:55;;;;;;;5.20;1.10;;;12.90;99.90;;;;;;4975067;28;20384;-66
2022/10/02 09:32:33;;;;;;;6.97;0.90;;;12.90;99.90;;;;;;4993765;28;20052;-65
2022/10/02 09:35:23;;;;;;;6.65;1.23;;;13.00;99.90;;;;;;4988144;28;20058;-66
2022/10/02 09:38:04;;;;;;;4.53;1.20;;;13.10;99.90;;;;;;4975496;28;20054;-65
2022/10/02 09:40:58;;;;;;;6.35;1.10;;;13.00;99.90;;;;;;4975564;28;20054;-65
2022/10/02 09:44:02;;;;;;;5.85;0.80;;;13.00;99.90;;;;;;4982176;28;20130;-65
2022/10/02 09:46:51;;;;;;;3.28;1.00;;;12.90;99.90;;;;;;4993957;28;20058;-66
2022/10/02 09:49:52;;;;;;;4.40;1.00;;;12.90;99.90;;;;;;4995071;28;20049;-65
2022/10/02 09:52:23;;;;;;;4.60;0.90;;;12.90;99.90;;;;;;4995406;28;20436;-65
2022/10/02 09:55:13;;;;;;;3.67;0.90;;;13.10;99.90;;;;;;4994938;28;20088;-65
2022/10/02 09:57:58;;;;;;;5.60;0.93;;;13.00;99.90;;;;;;4986712;28;20054;-65
2022/10/02 10:00:48;;;;;;;6.10;0.80;;;13.00;99.90;;;;;;4985146;28;20523;-64
2022/10/02 10:03:17;;;;;;;4.93;0.90;;;13.00;99.90;;;;;;4986177;28;20376;-65
2022/10/02 10:05:49;;;;;;;3.50;0.90;;;13.00;99.90;;;;;;4985638;28;20043;-64
2022/10/02 10:08:44;;;;;;;4.13;0.90;;;13.10;99.90;;;;;;4985304;28;20054;-65
2022/10/02 10:11:18;;;;;;;4.53;1.23;;;13.10;99.90;;;;;;4986056;28;20510;-65
2022/10/02 10:13:50;;;;;;;3.70;1.02;;;13.10;99.90;;;;;;4984098;28;20083;-65
2022/10/02 10:16:46;;;;;;;4.68;0.90;;;13.20;99.90;;;;;;4985240;28;20046;-65
2022/10/02 10:19:44;;;;;;;5.80;1.13;;;13.20;99.90;;;;;;4984620;28;20034;-65
2022/10/02 10:22:38;;;;;;;7.75;1.20;;;13.40;99.90;;;;;;4986252;28;20051;-65
2022/10/02 10:25:27;;;;;;;6.38;1.15;;;13.40;99.90;;;;;;4985396;28;20046;-67
2022/10/02 10:28:09;;;;;;;7.65;0.85;;;13.50;99.90;;;;;;4985598;28;20043;-65
2022/10/02 10:31:11;;;;;;;10.35;1.00;;;13.60;99.90;;;;;;5006818;28;20051;-66
2022/10/02 10:33:40;;;;;;;7.72;1.20;;;13.70;99.90;;;;;;4985376;28;20046;-65
2022/10/02 10:39:38;;;;;;;;;;;13.80;99.90;;;;;;4950521;28;20407;-65
2022/10/02 10:42:29;;;;;;;7.55;1.00;;;14.00;99.90;;;;;;4985321;28;20398;-64
2022/10/02 10:45:18;;;;;;;8.95;1.00;;;14.20;99.90;;;;;;4984947;28;20073;-64
2022/10/02 10:48:02;;;;;;;7.85;1.13;;;14.00;99.90;;;;;;4985296;28;20042;-64
2022/10/02 10:50:30;;;;;;;11.15;1.40;;;14.30;99.90;;;;;;4985175;28;20047;-65
2022/10/02 10:53:41;;;;;;;10.30;1.77;;;14.30;99.90;;;;;;4984414;28;20494;-65
2022/10/02 10:56:20;;;;;;;6.10;0.95;;;14.20;99.90;;;;;;4965531;28;20122;-65
2022/10/02 10:59:23;;;;;;;8.10;1.33;;;14.70;99.90;;;;;;4985127;28;20073;-65
2022/10/02 11:02:09;;;;;;;7.65;1.30;;;14.60;99.90;;;;;;4985425;28;20078;-64
2022/10/02 11:04:54;;;;;;;7.25;1.25;;;14.50;99.90;;;;;;4984566;28;20528;-65
2022/10/02 11:07:23;;;;;;;12.43;1.42;;;14.60;99.90;;;;;;4984067;28;20049;-65
2022/10/02 11:10:28;;;;;;;8.77;1.10;;;14.70;99.90;;;;;;4984803;28;20398;-65
2022/10/02 11:13:00;;;;;;;9.38;1.40;;;14.80;99.90;;;;;;4919357;28;20527;-65
2022/10/02 11:15:44;;;;;;;8.63;1.05;;;14.60;99.90;;;;;;4982879;28;20053;-65
2022/10/02 11:18:30;;;;;;;6.10;0.98;;;14.70;99.90;;;;;;4985256;28;20043;-66
2022/10/02 11:21:18;;;;;;;9.70;1.13;;;14.50;99.90;;;;;;4984283;28;20078;-65
2022/10/02 11:24:02;;;;;;;7.22;0.90;;;14.40;99.90;;;;;;4985007;28;20453;-65
2022/10/02 11:26:45;;;;;;;6.85;1.20;;;14.40;99.90;;;;;;4984630;28;20094;-66
2022/10/02 11:29:29;;;;;;;8.95;1.05;;;14.40;99.90;;;;;;4982479;28;20074;-65
2022/10/02 11:32:30;;;;;;;9.50;0.90;;;14.60;99.90;;;;;;4984625;28;20490;-65
2022/10/02 11:35:19;;;;;;;5.40;0.93;;;14.70;99.90;;;;;;4985895;28;20086;-66
2022/10/02 11:38:03;;;;;;;7.93;0.90;;;14.80;99.90;;;;;;4983197;28;20086;-65
2022/10/02 11:40:33;;;;;;;6.30;1.10;;;14.90;99.90;;;;;;4986893;28;20050;-65
2022/10/02 11:43:21;;;;;;;9.93;0.95;;;15.10;99.90;;;;;;4981706;28;20043;-67
2022/10/02 11:46:10;;;;;;;8.35;1.10;;;15.20;99.90;;;;;;4979319;28;20050;-65
2022/10/02 11:48:50;;;;;;;6.28;0.88;;;15.10;99.90;;;;;;4977938;28;20073;-65
2022/10/02 11:51:45;;;;;;;7.70;1.00;;;15.40;99.90;;;;;;4979721;28;20480;-65
2022/10/02 11:54:32;;;;;;;6.95;0.70;;;15.40;99.90;;;;;;4979739;28;20522;-66
2022/10/02 11:57:10;;;;;;;5.50;1.02;;;15.30;99.90;;;;;;4979234;28;20502;-66
2022/10/02 11:59:56;;;;;;;9.38;1.00;;;15.30;99.90;;;;;;4979863;28;20050;-65
2022/10/02 12:02:52;;;;;;;8.77;1.00;;;15.40;99.90;;;;;;4979955;28;20408;-66
2022/10/02 12:05:52;;;;;;;5.53;0.73;;;15.50;99.90;;;;;;4978863;28;20052;-66
2022/10/02 12:08:33;;;;;;;7.25;0.95;;;15.70;99.90;;;;;;4979863;28;20414;-66
2022/10/02 12:11:14;;;;;;;8.93;1.23;;;15.40;99.90;;;;;;4979483;28;20061;-65
2022/10/02 12:14:04;;;;;;;8.30;0.90;;;15.50;99.90;;;;;;4979509;28;20050;-66
2022/10/02 12:16:37;;;;;;;5.90;0.80;;;15.60;99.90;;;;;;4979924;28;20399;-67
2022/10/02 12:19:18;;;;;;;6.82;0.88;;;15.70;99.90;;;;;;4978386;28;20117;-66
2022/10/02 12:28:12;;;;;;;6.97;1.00;;;15.80;99.90;;;;;;4982499;28;20042;-66
2022/10/02 12:30:40;;;;;;;6.00;0.75;;;15.90;99.90;;;;;;4986399;28;20062;-67
2022/10/02 12:33:31;;;;;;;4.57;0.70;;;15.70;99.90;;;;;;4981117;28;20058;-66
2022/10/02 12:36:13;;;;;;;6.53;0.90;;;15.80;99.90;;;;;;4983393;28;20439;-66
2022/10/02 12:38:51;;;;;;;5.55;1.10;;;15.70;99.90;;;;;;4982898;28;20051;-66
2022/10/02 12:41:47;;;;;;;6.20;1.17;;;15.70;99.90;;;;;;4982126;28;20129;-66
2022/10/02 12:44:38;;;;;;;7.32;1.13;;;15.70;99.90;;;;;;4982574;28;20137;-65
2022/10/02 12:47:28;;;;;;;14.73;1.30;;;15.70;99.90;;;;;;4983425;28;20371;-66
2022/10/02 12:50:20;;;;;;;6.95;1.02;;;15.90;99.90;;;;;;4983293;28;20048;-66
2022/10/02 12:52:52;;;;;;;4.60;0.90;;;15.80;99.90;;;;;;4983699;28;20125;-66
2022/10/02 12:55:35;;;;;;;3.17;0.73;;;15.80;99.90;;;;;;4983171;28;20572;-67
2022/10/02 12:58:10;;;;;;;8.60;1.00;;;15.70;99.90;;;;;;4978070;28;20047;-67
2022/10/02 13:00:59;;;;;;;8.60;1.00;;;15.80;99.90;;;;;;4974736;28;20129;-66
2022/10/02 13:04:04;;;;;;;7.07;1.23;;;15.70;99.90;;;;;;4991945;28;20129;-66
2022/10/02 13:06:48;;;;;;;9.93;1.00;;;15.50;99.90;;;;;;4991678;28;20054;-66
2022/10/02 13:09:30;;;;;;;8.75;0.90;;;15.30;99.90;;;;;;4992045;28;20117;-65
2022/10/02 13:12:14;;;;;;;6.85;0.90;;;15.50;99.90;;;;;;4972595;28;20196;-66
2022/10/02 13:15:06;;;;;;;12.20;1.00;;;15.60;99.90;;;;;;4971623;28;20108;-66
2022/10/02 13:17:51;;;;;;;4.18;0.80;;;15.70;99.90;;;;;;4971413;28;20126;-65
2022/10/02 13:20:37;;;;;;;6.97;0.90;;;15.80;99.90;;;;;;4972054;28;20051;-66
2022/10/02 13:23:44;;;;;;;8.45;1.52;;;15.90;99.90;;;;;;4972571;28;20141;-67
2022/10/02 13:26:12;;;;;;;3.28;0.70;;;15.80;99.90;;;;;;4912086;29;20052;-66
2022/10/02 13:29:04;;;;;;;6.13;1.00;;;15.50;99.90;;;;;;4911624;29;20053;-67
2022/10/02 13:31:35;;;;;;;5.05;0.88;;;15.50;99.90;;;;;;4951613;28;20153;-66
2022/10/02 13:34:21;;;;;;;8.52;1.10;;;15.30;99.90;;;;;;4972371;28;20059;-65
2022/10/02 13:36:47;;;;;;;6.35;1.38;;;15.40;99.90;;;;;;4970625;28;20073;-66
2022/10/02 13:39:57;;;;;;;11.13;1.10;;;15.60;99.90;;;;;;4972134;28;20051;-67
2022/10/02 13:42:41;;;;;;;7.70;1.10;;;15.40;99.90;;;;;;4971259;28;20264;-66
2022/10/02 13:45:21;;;;;;;5.18;0.88;;;15.40;99.90;;;;;;4971483;28;20043;-66
2022/10/02 13:48:31;;;;;;;6.32;0.85;;;15.30;99.90;;;;;;4971978;28;20042;-66
2022/10/02 13:51:05;;;;;;;7.78;0.98;;;15.20;99.90;;;;;;4971953;28;20047;-66
2022/10/02 13:54:01;;;;;;;6.13;1.10;;;15.30;99.90;;;;;;4971565;28;20051;-67
2022/10/02 13:56:33;;;;;;;7.05;0.90;;;15.10;99.90;;;;;;4971003;28;20050;-66
2022/10/02 13:59:20;;;;;;;8.98;1.05;;;15.10;99.90;;;;;;4970742;28;20646;-66
2022/10/02 14:02:07;;;;;;;11.57;1.10;;;15.20;99.90;;;;;;4971680;28;20106;-67
2022/10/02 14:04:45;;;;;;;6.95;1.08;;;15.00;99.90;;;;;;4971484;28;20068;-67
2022/10/02 14:07:45;;;;;;;9.98;1.48;;;14.80;99.90;;;;;;4971010;28;20051;-67
2022/10/02 14:10:36;;;;;;;11.50;1.67;;;14.90;99.90;;;;;;4971831;28;20133;-66
2022/10/02 14:13:08;;;;;;;9.50;1.40;;;14.80;99.90;;;;;;4971551;28;20142;-66